createdAt,value
2022-07-25T00:00:09.627Z,24.76
2022-07-25T00:03:11.172Z,24.51
2022-07-25T00:06:13.536Z,24.53
2022-07-25T00:09:19.351Z,24.38
2022-07-25T00:12:21.564Z,23.97
2022-07-25T00:15:22.996Z,23.77
2022-07-25T00:18:24.501Z,23.71
2022-07-25T00:21:26.088Z,23.48
2022-07-25T00:24:27.645Z,23.55
2022-07-25T00:27:29.114Z,23.51
2022-07-25T00:30:30.590Z,23.48
2022-07-25T00:33:32.317Z,23.21
2022-07-25T00:36:33.879Z,23.01
2022-07-25T00:39:35.823Z,23.06
2022-07-25T00:42:38.322Z,22.83
2022-07-25T00:45:39.842Z,22.71
2022-07-25T00:48:41.542Z,22.70
2022-07-25T00:51:43.475Z,22.58
2022-07-25T00:54:45.217Z,22.49
2022-07-25T00:57:46.703Z,22.57
2022-07-25T01:00:48.520Z,22.43
2022-07-25T01:03:50.074Z,22.25
2022-07-25T01:06:52.012Z,22.30
2022-07-25T01:09:54.037Z,22.25
2022-07-25T01:12:55.693Z,22.12
2022-07-25T01:15:57.278Z,22.15
2022-07-25T01:18:59.042Z,22.02
2022-07-25T01:22:00.663Z,21.84
2022-07-25T01:25:02.128Z,21.85
2022-07-25T01:28:03.811Z,21.90
2022-07-25T01:31:05.951Z,21.72
2022-07-25T01:34:07.698Z,21.72
2022-07-25T01:37:09.298Z,21.88
2022-07-25T01:40:11.612Z,21.92
2022-07-25T01:43:14.041Z,21.71
2022-07-25T01:46:15.632Z,21.73
2022-07-25T01:49:17.204Z,21.77
2022-07-25T01:52:18.835Z,22.02
2022-07-25T01:55:20.350Z,22.04
2022-07-25T01:58:22.033Z,22.00
2022-07-25T02:01:24.408Z,22.20
2022-07-25T02:04:25.924Z,22.10
2022-07-25T02:07:27.512Z,22.05
2022-07-25T02:10:28.954Z,22.07
2022-07-25T02:13:30.467Z,22.35
2022-07-25T02:16:31.963Z,22.11
2022-07-25T02:19:34.233Z,21.94
2022-07-25T02:22:35.856Z,22.07
2022-07-25T02:25:37.571Z,21.91
2022-07-25T02:28:39.577Z,21.73
2022-07-25T02:31:41.049Z,21.52
2022-07-25T02:34:42.495Z,21.41
2022-07-25T02:37:44.209Z,21.25
2022-07-25T02:40:49.944Z,21.29
2022-07-25T02:43:51.475Z,21.22
2022-07-25T02:46:52.968Z,21.20
2022-07-25T02:49:54.484Z,21.18
2022-07-25T02:52:55.951Z,21.08
2022-07-25T02:55:57.530Z,20.91
2022-07-25T02:58:59.827Z,21.05
2022-07-25T03:02:01.359Z,21.11
2022-07-25T03:05:05.486Z,21.20
2022-07-25T03:08:06.823Z,21.16
2022-07-25T03:11:08.262Z,20.88
2022-07-25T03:14:10.181Z,20.73
2022-07-25T03:17:11.860Z,20.79
2022-07-25T03:20:13.494Z,20.87
2022-07-25T03:23:14.972Z,20.79
2022-07-25T03:26:16.429Z,20.78
2022-07-25T03:29:17.958Z,20.62
2022-07-25T03:32:19.562Z,20.39
2022-07-25T03:35:21.449Z,20.42
2022-07-25T03:38:24.606Z,20.35
2022-07-25T03:41:27.200Z,20.39
2022-07-25T03:44:29.531Z,20.29
2022-07-25T03:47:31.028Z,20.26
2022-07-25T03:50:32.519Z,20.37
2022-07-25T03:53:54.373Z,20.38
2022-07-25T03:56:55.851Z,20.45
2022-07-25T03:59:57.270Z,20.43
2022-07-25T04:02:58.974Z,20.38
2022-07-25T04:06:00.470Z,20.29
2022-07-25T04:09:02.357Z,20.60
2022-07-25T04:12:04.164Z,20.79
2022-07-25T04:15:06.295Z,20.66
2022-07-25T04:18:07.751Z,20.42
2022-07-25T04:21:13.749Z,20.45
2022-07-25T04:24:15.156Z,20.44
2022-07-25T04:27:16.774Z,20.45
2022-07-25T04:30:23.941Z,20.67
2022-07-25T04:33:26.891Z,20.61
2022-07-25T04:36:28.427Z,20.41
2022-07-25T04:39:29.939Z,20.33
2022-07-25T04:42:31.449Z,20.42
2022-07-25T04:45:34.743Z,20.50
2022-07-25T04:48:36.291Z,20.46
2022-07-25T04:51:37.852Z,20.34
2022-07-25T04:54:39.268Z,20.29
2022-07-25T04:57:41.042Z,20.31
2022-07-25T05:00:42.667Z,20.36
2022-07-25T05:03:50.210Z,20.33
2022-07-25T05:06:52.185Z,20.34
2022-07-25T05:09:53.651Z,20.18
2022-07-25T05:12:56.365Z,20.25
2022-07-25T05:15:57.828Z,20.34
2022-07-25T05:18:59.334Z,20.22
2022-07-25T05:22:01.068Z,20.32
2022-07-25T05:25:02.537Z,20.23
2022-07-25T05:28:04.496Z,20.35
2022-07-25T05:31:06.238Z,20.43
2022-07-25T05:34:08.166Z,20.41
2022-07-25T05:37:09.900Z,20.45
2022-07-25T05:40:11.485Z,20.55
2022-07-25T05:43:13.002Z,20.69
2022-07-25T05:46:15.225Z,20.60
2022-07-25T05:49:16.769Z,20.59
2022-07-25T05:52:18.308Z,20.75
2022-07-25T05:55:19.742Z,20.78
2022-07-25T05:58:23.972Z,20.90
2022-07-25T06:01:29.229Z,20.88
2022-07-25T06:04:30.741Z,20.98
2022-07-25T06:07:32.244Z,21.15
2022-07-25T06:10:33.789Z,21.07
2022-07-25T06:13:35.479Z,21.16
2022-07-25T06:16:37.428Z,21.31
2022-07-25T06:19:38.986Z,21.29
2022-07-25T06:22:40.466Z,21.34
2022-07-25T06:25:41.983Z,21.42
2022-07-25T06:28:43.463Z,21.50
2022-07-25T06:31:47.057Z,21.62
2022-07-25T06:34:48.882Z,21.73
2022-07-25T06:37:50.436Z,21.99
2022-07-25T06:40:51.885Z,22.29
2022-07-25T06:43:53.332Z,22.42
2022-07-25T06:46:54.911Z,22.53
2022-07-25T06:49:57.088Z,22.72
2022-07-25T06:52:58.590Z,22.74
2022-07-25T06:56:00.108Z,22.84
2022-07-25T06:59:01.552Z,23.06
2022-07-25T07:02:03.016Z,23.11
2022-07-25T07:05:04.782Z,23.35
2022-07-25T07:08:06.294Z,23.51
2022-07-25T07:11:07.738Z,23.66
2022-07-25T07:14:09.661Z,24.18
2022-07-25T07:17:11.325Z,24.55
2022-07-25T07:20:12.778Z,24.60
2022-07-25T07:23:16.940Z,24.64
2022-07-25T07:26:19.673Z,24.89
2022-07-25T07:29:21.338Z,25.42
2022-07-25T07:32:22.804Z,25.57
2022-07-25T07:35:25.346Z,25.65
2022-07-25T07:38:29.065Z,25.56
2022-07-25T07:41:30.500Z,25.97
2022-07-25T07:44:31.984Z,26.05
2022-07-25T07:47:33.469Z,26.27
2022-07-25T07:50:35.060Z,26.47
2022-07-25T07:53:55.012Z,26.73
2022-07-25T07:56:56.543Z,26.85
2022-07-25T07:59:57.998Z,27.12
2022-07-25T08:03:00.255Z,27.46
2022-07-25T08:06:01.910Z,27.69
2022-07-25T08:09:04.081Z,27.84
2022-07-25T08:12:05.966Z,28.02
2022-07-25T08:15:08.847Z,27.85
2022-07-25T08:18:17.904Z,28.47
2022-07-25T08:21:20.048Z,28.21
2022-07-25T08:24:21.497Z,28.38
2022-07-25T08:27:23.116Z,28.41
2022-07-25T08:30:24.926Z,28.57
2022-07-25T08:33:26.702Z,28.75
2022-07-25T08:36:33.699Z,28.68
2022-07-25T08:39:36.345Z,28.94
2022-07-25T08:42:38.066Z,28.96
2022-07-25T08:45:50.077Z,29.05
2022-07-25T08:48:52.148Z,28.89
2022-07-25T08:51:55.299Z,28.90
2022-07-25T08:54:57.689Z,29.06
2022-07-25T08:57:59.171Z,29.19
2022-07-25T09:01:00.618Z,29.25
2022-07-25T09:04:03.875Z,29.26
2022-07-25T09:07:08.318Z,29.38
2022-07-25T09:10:13.611Z,29.38
2022-07-25T09:13:16.650Z,29.60
2022-07-25T09:16:29.157Z,29.68
2022-07-25T09:19:31.571Z,29.62
2022-07-25T09:22:44.225Z,29.50
2022-07-25T09:25:45.667Z,30.04
2022-07-25T09:28:49.192Z,30.03
2022-07-25T09:31:52.942Z,30.03
2022-07-25T09:34:54.499Z,30.42
2022-07-25T09:38:09.994Z,30.55
2022-07-25T09:41:12.161Z,30.42
2022-07-25T09:44:17.804Z,30.54
2022-07-25T09:47:19.329Z,30.50
2022-07-25T09:50:22.447Z,30.47
2022-07-25T09:53:24.455Z,30.77
2022-07-25T09:56:26.322Z,30.93
2022-07-25T09:59:27.835Z,31.29
2022-07-25T10:02:32.290Z,31.35
2022-07-25T10:06:12.051Z,31.99
2022-07-25T10:09:14.277Z,31.67
2022-07-25T10:12:20.294Z,31.37
2022-07-25T10:15:21.859Z,31.49
2022-07-25T10:18:25.324Z,31.99
2022-07-25T10:21:28.488Z,32.02
2022-07-25T10:24:35.616Z,31.92
2022-07-25T10:27:43.181Z,31.92
2022-07-25T10:30:46.170Z,31.46
2022-07-25T10:33:56.382Z,31.40
2022-07-25T10:37:08.371Z,31.99
2022-07-25T10:40:10.503Z,32.28
2022-07-25T10:43:19.151Z,32.52
2022-07-25T10:46:23.466Z,32.66
2022-07-25T10:49:32.162Z,32.81
2022-07-25T10:52:42.281Z,32.66
2022-07-25T10:56:04.866Z,32.82
2022-07-25T10:59:07.424Z,33.19
2022-07-25T11:02:18.030Z,33.01
2022-07-25T11:05:19.608Z,33.37
2022-07-25T11:08:30.948Z,33.38
2022-07-25T11:11:38.230Z,33.34
2022-07-25T11:14:42.511Z,33.82
2022-07-25T11:17:53.264Z,33.82
2022-07-25T11:21:06.236Z,33.46
2022-07-25T11:24:08.054Z,33.08
2022-07-25T11:27:12.811Z,33.30
2022-07-25T11:30:17.246Z,33.10
2022-07-25T11:33:18.725Z,33.13
2022-07-25T11:36:20.423Z,33.08
2022-07-25T11:39:23.758Z,33.78
2022-07-25T11:42:27.481Z,33.93
2022-07-25T11:45:33.492Z,34.25
2022-07-25T11:48:39.823Z,34.35
2022-07-25T11:51:41.745Z,34.30
2022-07-25T11:55:00.542Z,34.28
2022-07-25T11:58:04.121Z,34.58
2022-07-25T12:01:11.407Z,34.76
2022-07-25T12:04:18.362Z,34.35
2022-07-25T12:07:19.788Z,34.13
2022-07-25T12:10:33.721Z,34.12
2022-07-25T12:13:37.077Z,34.24
2022-07-25T12:16:39.494Z,34.35
2022-07-25T12:19:46.605Z,33.99
2022-07-25T12:22:50.223Z,34.26
2022-07-25T12:25:51.881Z,34.62
2022-07-25T12:28:53.531Z,34.57
2022-07-25T12:31:55.003Z,34.12
2022-07-25T12:34:56.426Z,34.08
2022-07-25T12:37:58.410Z,33.93
2022-07-25T12:41:00.667Z,34.31
2022-07-25T12:44:04.178Z,34.04
2022-07-25T12:47:05.562Z,34.29
2022-07-25T12:50:07.871Z,34.05
2022-07-25T12:53:09.380Z,34.20
2022-07-25T12:56:10.911Z,34.47
2022-07-25T12:59:12.811Z,34.49
2022-07-25T13:02:15.224Z,34.16
2022-07-25T13:05:17.283Z,33.98
2022-07-25T13:08:18.806Z,34.15
2022-07-25T13:11:20.276Z,34.07
2022-07-25T13:14:21.938Z,34.09
2022-07-25T13:17:27.303Z,34.08
2022-07-25T13:20:29.667Z,33.81
2022-07-25T13:23:31.264Z,33.62
2022-07-25T13:26:33.707Z,33.43
2022-07-25T13:29:35.382Z,33.24
2022-07-25T13:32:37.363Z,33.31
2022-07-25T13:35:39.815Z,33.19
2022-07-25T13:38:43.212Z,33.20
2022-07-25T13:41:44.652Z,33.11
2022-07-25T13:44:46.097Z,33.10
2022-07-25T13:47:56.320Z,33.08
2022-07-25T13:51:07.730Z,32.96
2022-07-25T13:54:09.263Z,32.98
2022-07-25T13:57:10.805Z,32.63
2022-07-25T14:00:12.646Z,32.65
2022-07-25T14:03:14.127Z,32.44
2022-07-25T14:06:15.639Z,32.11
2022-07-25T14:09:18.863Z,32.37
2022-07-25T14:12:20.452Z,32.42
2022-07-25T14:15:22.137Z,32.55
2022-07-25T14:18:23.563Z,32.50
2022-07-25T14:21:25.499Z,32.76
2022-07-25T14:24:27.108Z,32.84
2022-07-25T14:27:28.633Z,32.86
2022-07-25T14:30:30.232Z,32.84
2022-07-25T14:33:31.682Z,33.26
2022-07-25T14:36:33.660Z,34.05
2022-07-25T14:39:35.141Z,34.48
2022-07-25T14:42:37.063Z,34.59
2022-07-25T14:45:38.646Z,34.41
2022-07-25T14:48:40.275Z,34.25
2022-07-25T14:51:42.913Z,34.71
2022-07-25T14:54:44.558Z,34.15
2022-07-25T14:57:46.067Z,33.65
2022-07-25T15:00:47.571Z,33.54
2022-07-25T15:03:49.340Z,33.93
2022-07-25T15:06:52.002Z,33.92
2022-07-25T15:09:53.544Z,34.72
2022-07-25T15:13:20.525Z,34.96
2022-07-25T15:16:17.381Z,34.94
2022-07-25T15:19:18.913Z,34.14
2022-07-25T15:22:21.182Z,33.71
2022-07-25T15:25:59.537Z,33.65
2022-07-25T15:28:44.323Z,33.69
2022-07-25T15:31:49.113Z,33.86
2022-07-25T15:34:50.669Z,33.66
2022-07-25T15:37:52.463Z,33.54
2022-07-25T15:40:54.023Z,33.42
2022-07-25T15:43:55.477Z,33.22
2022-07-25T15:46:57.145Z,33.05
2022-07-25T15:49:58.998Z,32.98
2022-07-25T15:53:00.515Z,32.88
2022-07-25T15:56:02.089Z,32.92
2022-07-25T15:59:03.584Z,32.90
2022-07-25T16:02:09.389Z,32.89
2022-07-25T16:05:10.859Z,33.29
2022-07-25T16:08:12.309Z,34.16
2022-07-25T16:11:14.118Z,34.39
2022-07-25T16:14:15.574Z,34.47
2022-07-25T16:17:17.534Z,34.19
2022-07-25T16:20:20.313Z,34.14
2022-07-25T16:23:24.130Z,34.05
2022-07-25T16:26:25.775Z,33.72
2022-07-25T16:29:27.376Z,33.72
2022-07-25T16:32:29.678Z,33.62
2022-07-25T16:35:32.268Z,33.43
2022-07-25T16:38:33.695Z,33.10
2022-07-25T16:41:35.200Z,32.41
2022-07-25T16:44:36.639Z,32.08
2022-07-25T16:47:40.120Z,31.99
2022-07-25T16:50:43.695Z,31.57
2022-07-25T16:53:45.122Z,31.49
2022-07-25T16:56:50.136Z,31.37
2022-07-25T16:59:54.314Z,31.28
2022-07-25T17:02:55.764Z,31.66
2022-07-25T17:05:57.636Z,31.81
2022-07-25T17:08:59.462Z,31.59
2022-07-25T17:12:01.388Z,31.38
2022-07-25T17:15:04.536Z,31.22
2022-07-25T17:18:06.083Z,31.10
2022-07-25T17:21:09.346Z,30.94
2022-07-25T17:24:10.922Z,30.65
2022-07-25T17:27:12.840Z,30.68
2022-07-25T17:30:14.283Z,30.57
2022-07-25T17:33:15.790Z,30.41
2022-07-25T17:36:17.369Z,30.42
2022-07-25T17:39:18.861Z,30.39
2022-07-25T17:42:23.914Z,30.40
2022-07-25T17:45:25.957Z,30.18
2022-07-25T17:48:27.562Z,30.23
2022-07-25T17:51:31.496Z,30.10
2022-07-25T17:54:33.548Z,30.12
2022-07-25T17:57:35.055Z,30.11
2022-07-25T18:00:37.356Z,29.95
2022-07-25T18:03:38.968Z,29.88
2022-07-25T18:06:40.467Z,29.80
2022-07-25T18:09:41.991Z,29.93
2022-07-25T18:12:44.678Z,29.84
2022-07-25T18:15:47.000Z,29.70
2022-07-25T18:18:48.549Z,29.74
2022-07-25T18:21:50.013Z,29.66
2022-07-25T18:24:51.430Z,29.49
2022-07-25T18:27:53.029Z,29.49
2022-07-25T18:30:55.036Z,29.48
2022-07-25T18:33:56.572Z,29.43
2022-07-25T18:36:58.251Z,29.16
2022-07-25T18:39:59.787Z,29.16
2022-07-25T18:43:01.205Z,29.03
2022-07-25T18:46:06.716Z,28.99
2022-07-25T18:49:11.761Z,28.79
2022-07-25T18:52:13.301Z,28.65
2022-07-25T18:55:14.875Z,28.49
2022-07-25T18:58:16.430Z,28.59
2022-07-25T19:01:17.986Z,28.39
2022-07-25T19:04:19.502Z,28.34
2022-07-25T19:07:21.130Z,28.34
2022-07-25T19:10:22.594Z,28.06
2022-07-25T19:13:47.650Z,28.05
2022-07-25T19:16:45.739Z,27.93
2022-07-25T19:19:47.343Z,27.94
2022-07-25T19:22:49.526Z,27.84
2022-07-25T19:25:51.052Z,27.83
2022-07-25T19:28:52.517Z,27.73
2022-07-25T19:31:54.129Z,27.64
2022-07-25T19:34:55.557Z,27.65
2022-07-25T19:37:57.009Z,27.55
2022-07-25T19:40:59.306Z,27.42
2022-07-25T19:44:01.145Z,27.38
2022-07-25T19:47:02.849Z,27.34
2022-07-25T19:50:04.637Z,27.20
2022-07-25T19:53:06.122Z,27.09
2022-07-25T19:56:08.446Z,27.08
2022-07-25T19:59:09.987Z,27.02
2022-07-25T20:02:12.052Z,26.92
2022-07-25T20:05:13.566Z,26.78
2022-07-25T20:08:15.245Z,26.78
2022-07-25T20:11:16.809Z,26.93
2022-07-25T20:14:18.267Z,26.84
2022-07-25T20:17:19.892Z,26.95
2022-07-25T20:20:21.401Z,26.99
2022-07-25T20:23:23.412Z,26.76
2022-07-25T20:26:25.386Z,26.57
2022-07-25T20:29:26.862Z,26.57
2022-07-25T20:32:31.973Z,26.23
2022-07-25T20:35:34.393Z,26.25
2022-07-25T20:38:36.151Z,26.27
2022-07-25T20:41:38.236Z,26.00
2022-07-25T20:44:39.979Z,25.89
2022-07-25T20:47:41.553Z,25.82
2022-07-25T20:50:43.979Z,25.76
2022-07-25T20:53:45.569Z,25.78
2022-07-25T20:56:54.765Z,25.75
2022-07-25T20:59:56.375Z,25.66
2022-07-25T21:02:58.497Z,25.67
2022-07-25T21:06:01.328Z,25.67
2022-07-25T21:09:03.395Z,25.51
2022-07-25T21:12:05.040Z,25.48
2022-07-25T21:15:08.075Z,25.43
2022-07-25T21:18:09.714Z,25.40
2022-07-25T21:21:12.344Z,25.35
2022-07-25T21:24:14.137Z,25.21
2022-07-25T21:27:16.820Z,25.22
2022-07-25T21:30:18.544Z,25.18
2022-07-25T21:33:20.048Z,25.11
2022-07-25T21:36:21.581Z,25.04
2022-07-25T21:39:23.051Z,24.93
2022-07-25T21:42:24.533Z,24.91
2022-07-25T21:45:26.971Z,24.99
2022-07-25T21:48:51.740Z,24.99
2022-07-25T21:51:55.693Z,25.02
2022-07-25T21:55:01.472Z,25.01
2022-07-25T21:58:03.176Z,24.85
2022-07-25T22:01:04.748Z,24.89
2022-07-25T22:04:06.371Z,24.74
2022-07-25T22:07:07.946Z,24.71
2022-07-25T22:10:11.941Z,24.59
2022-07-25T22:13:13.895Z,24.66
2022-07-25T22:16:16.433Z,24.54
2022-07-25T22:19:21.961Z,24.42
2022-07-25T22:22:23.901Z,24.31
2022-07-25T22:25:25.491Z,24.29
2022-07-25T22:28:26.975Z,24.12
2022-07-25T22:31:28.520Z,23.98
2022-07-25T22:34:30.152Z,24.24
2022-07-25T22:37:32.564Z,24.14
2022-07-25T22:40:34.570Z,24.05
2022-07-25T22:43:57.433Z,23.96
2022-07-25T22:46:57.566Z,24.05
2022-07-25T22:49:59.031Z,24.21
2022-07-25T22:53:00.462Z,24.23
2022-07-25T22:56:01.919Z,24.20
2022-07-25T22:59:03.492Z,24.30
2022-07-25T23:02:05.006Z,24.31
2022-07-25T23:05:07.389Z,24.11
2022-07-25T23:08:08.838Z,24.07
2022-07-25T23:11:10.274Z,24.31
2022-07-25T23:14:11.941Z,24.26
2022-07-25T23:17:20.134Z,24.26
2022-07-25T23:20:21.820Z,24.32
2022-07-25T23:23:23.237Z,24.36
2022-07-25T23:26:24.661Z,24.40
2022-07-25T23:29:26.154Z,24.29
2022-07-25T23:32:27.615Z,24.17
2022-07-25T23:35:29.118Z,24.06
2022-07-25T23:38:30.623Z,23.99
2022-07-25T23:41:32.083Z,23.88
2022-07-25T23:44:33.640Z,23.89
2022-07-25T23:47:39.630Z,23.92
2022-07-25T23:50:42.239Z,23.67
2022-07-25T23:53:43.983Z,23.57
2022-07-25T23:56:45.434Z,23.15
2022-07-25T23:59:46.887Z,23.04
